sensor_id;sensor_type;location;lat;lon;timestamp;P1;P2;P0
65574;PMS5003;52216;54.942;73.394;2023-04-03T00:01:28;2.00;2.00;0.50
65574;PMS5003;52216;54.942;73.394;2023-04-03T00:04:31;2.00;2.00;0.00
65574;PMS5003;52216;54.942;73.394;2023-04-03T00:07:44;1.25;1.00;0.00
65574;PMS5003;52216;54.942;73.394;2023-04-03T00:10:47;0.00;0.00;0.00
65574;PMS5003;52216;54.942;73.394;2023-04-03T00:13:50;2.00;1.00;0.00
65574;PMS5003;52216;54.942;73.394;2023-04-03T00:16:53;2.00;2.00;0.00
65574;PMS5003;52216;54.942;73.394;2023-04-03T00:19:57;2.00;2.00;0.00
65574;PMS5003;52216;54.942;73.394;2023-04-03T00:23:00;1.00;1.00;0.00
65574;PMS5003;52216;54.942;73.394;2023-04-03T00:26:08;1.25;0.00;0.00
65574;PMS5003;52216;54.942;73.394;2023-04-03T00:29:13;1.00;0.00;0.00
65574;PMS5003;52216;54.942;73.394;2023-04-03T00:32:16;0.00;0.00;0.00
65574;PMS5003;52216;54.942;73.394;2023-04-03T00:35:19;1.00;0.00;0.00
65574;PMS5003;52216;54.942;73.394;2023-04-03T00:38:23;2.00;1.50;0.00
65574;PMS5003;52216;54.942;73.394;2023-04-03T00:41:31;2.00;1.00;0.00
65574;PMS5003;52216;54.942;73.394;2023-04-03T00:47:43;2.00;1.00;0.00
65574;PMS5003;52216;54.942;73.394;2023-04-03T00:50:52;2.00;1.50;0.00
65574;PMS5003;52216;54.942;73.394;2023-04-03T00:53:56;1.00;1.00;0.00
65574;PMS5003;52216;54.942;73.394;2023-04-03T00:57:01;0.00;0.00;0.00
65574;PMS5003;52216;54.942;73.394;2023-04-03T01:00:05;1.67;1.33;0.00
65574;PMS5003;52216;54.942;73.394;2023-04-03T01:03:20;2.00;1.75;0.00
65574;PMS5003;52216;54.942;73.394;2023-04-03T01:06:25;2.00;2.00;0.00
65574;PMS5003;52216;54.942;73.394;2023-04-03T01:09:51;2.50;1.50;0.00
65574;PMS5003;52216;54.942;73.394;2023-04-03T01:12:55;2.00;2.00;0.00
65574;PMS5003;52216;54.942;73.394;2023-04-03T01:16:04;2.00;1.00;0.00
65574;PMS5003;52216;54.942;73.394;2023-04-03T01:19:07;2.00;0.00;0.00
65574;PMS5003;52216;54.942;73.394;2023-04-03T01:22:25;4.00;2.75;0.00
65574;PMS5003;52216;54.942;73.394;2023-04-03T01:28:45;1.75;1.00;0.00
65574;PMS5003;52216;54.942;73.394;2023-04-03T01:34:52;2.00;0.00;0.00
65574;PMS5003;52216;54.942;73.394;2023-04-03T01:37:55;1.00;1.00;0.00
65574;PMS5003;52216;54.942;73.394;2023-04-03T01:40:58;1.00;0.33;0.00
65574;PMS5003;52216;54.942;73.394;2023-04-03T01:44:11;2.00;1.00;0.00
65574;PMS5003;52216;54.942;73.394;2023-04-03T01:47:14;2.00;2.00;0.00
65574;PMS5003;52216;54.942;73.394;2023-04-03T01:50:18;2.00;2.00;0.00
65574;PMS5003;52216;54.942;73.394;2023-04-03T01:53:21;1.50;1.50;0.00
65574;PMS5003;52216;54.942;73.394;2023-04-03T01:56:30;1.00;1.00;0.00
65574;PMS5003;52216;54.942;73.394;2023-04-03T01:59:34;0.00;0.00;0.00
65574;PMS5003;52216;54.942;73.394;2023-04-03T02:02:36;0.00;0.00;0.00
65574;PMS5003;52216;54.942;73.394;2023-04-03T02:05:39;0.00;0.00;0.00
65574;PMS5003;52216;54.942;73.394;2023-04-03T02:08:42;0.00;0.00;0.00
65574;PMS5003;52216;54.942;73.394;2023-04-03T02:11:46;1.00;1.00;0.00
65574;PMS5003;52216;54.942;73.394;2023-04-03T02:14:49;0.00;0.00;0.00
65574;PMS5003;52216;54.942;73.394;2023-04-03T02:17:53;0.00;0.00;0.00
65574;PMS5003;52216;54.942;73.394;2023-04-03T02:20:57;1.00;0.00;0.00
65574;PMS5003;52216;54.942;73.394;2023-04-03T02:24:00;0.25;0.25;0.00
65574;PMS5003;52216;54.942;73.394;2023-04-03T02:27:03;1.00;1.00;0.00
65574;PMS5003;52216;54.942;73.394;2023-04-03T02:30:09;2.00;2.00;0.00
65574;PMS5003;52216;54.942;73.394;2023-04-03T02:33:13;1.00;1.00;0.00
65574;PMS5003;52216;54.942;73.394;2023-04-03T02:36:16;3.67;3.00;0.00
65574;PMS5003;52216;54.942;73.394;2023-04-03T02:39:23;1.00;1.00;0.00
65574;PMS5003;52216;54.942;73.394;2023-04-03T02:42:31;2.00;2.00;0.00
65574;PMS5003;52216;54.942;73.394;2023-04-03T02:45:34;2.00;2.00;0.00
65574;PMS5003;52216;54.942;73.394;2023-04-03T02:48:47;3.75;2.00;0.00
65574;PMS5003;52216;54.942;73.394;2023-04-03T02:51:49;3.00;2.00;0.00
65574;PMS5003;52216;54.942;73.394;2023-04-03T02:54:54;4.00;3.50;0.00
65574;PMS5003;52216;54.942;73.394;2023-04-03T02:57:57;2.25;2.00;0.00
65574;PMS5003;52216;54.942;73.394;2023-04-03T03:01:00;4.00;2.00;0.00
65574;PMS5003;52216;54.942;73.394;2023-04-03T03:04:04;4.00;4.00;0.00
65574;PMS5003;52216;54.942;73.394;2023-04-03T03:07:07;3.50;3.50;0.00
65574;PMS5003;52216;54.942;73.394;2023-04-03T03:10:10;5.00;4.00;2.00
65574;PMS5003;52216;54.942;73.394;2023-04-03T03:13:16;4.50;3.75;1.00
65574;PMS5003;52216;54.942;73.394;2023-04-03T03:16:19;4.50;3.00;1.00
65574;PMS5003;52216;54.942;73.394;2023-04-03T03:19:22;3.75;3.75;1.00
65574;PMS5003;52216;54.942;73.394;2023-04-03T03:22:34;3.00;3.00;2.00
65574;PMS5003;52216;54.942;73.394;2023-04-03T03:25:38;3.00;3.00;1.00
65574;PMS5003;52216;54.942;73.394;2023-04-03T03:28:42;4.00;3.00;2.00
65574;PMS5003;52216;54.942;73.394;2023-04-03T03:31:45;3.75;3.75;2.00
65574;PMS5003;52216;54.942;73.394;2023-04-03T03:34:48;4.75;3.00;1.00
65574;PMS5003;52216;54.942;73.394;2023-04-03T03:37:51;2.75;2.75;1.00
65574;PMS5003;52216;54.942;73.394;2023-04-03T03:40:55;3.00;3.00;0.00
65574;PMS5003;52216;54.942;73.394;2023-04-03T03:43:59;6.00;5.00;2.00
65574;PMS5003;52216;54.942;73.394;2023-04-03T03:47:10;3.00;3.00;1.00
65574;PMS5003;52216;54.942;73.394;2023-04-03T03:50:14;3.50;3.00;0.00
65574;PMS5003;52216;54.942;73.394;2023-04-03T03:53:16;3.25;3.00;1.00
65574;PMS5003;52216;54.942;73.394;2023-04-03T03:56:19;4.50;3.00;1.00
65574;PMS5003;52216;54.942;73.394;2023-04-03T03:59:23;4.75;3.50;1.00
65574;PMS5003;52216;54.942;73.394;2023-04-03T04:02:26;4.00;3.00;2.00
65574;PMS5003;52216;54.942;73.394;2023-04-03T04:05:30;3.00;3.00;0.00
65574;PMS5003;52216;54.942;73.394;2023-04-03T04:08:39;3.00;3.00;1.00
65574;PMS5003;52216;54.942;73.394;2023-04-03T04:11:55;3.00;3.00;1.00
65574;PMS5003;52216;54.942;73.394;2023-04-03T04:14:57;3.00;3.00;1.00
65574;PMS5003;52216;54.942;73.394;2023-04-03T04:18:01;4.00;3.00;1.00
65574;PMS5003;52216;54.942;73.394;2023-04-03T04:21:13;5.75;4.13;1.00
65574;PMS5003;52216;54.942;73.394;2023-04-03T04:24:17;4.00;3.00;0.00
65574;PMS5003;52216;54.942;73.394;2023-04-03T04:27:21;3.00;3.00;0.00
65574;PMS5003;52216;54.942;73.394;2023-04-03T04:30:25;5.75;5.00;0.00
65574;PMS5003;52216;54.942;73.394;2023-04-03T04:33:30;3.50;3.00;1.00
65574;PMS5003;52216;54.942;73.394;2023-04-03T04:36:49;3.00;3.00;1.00
65574;PMS5003;52216;54.942;73.394;2023-04-03T04:39:52;3.00;3.00;1.00
65574;PMS5003;52216;54.942;73.394;2023-04-03T04:42:54;5.00;4.00;1.00
65574;PMS5003;52216;54.942;73.394;2023-04-03T04:46:00;3.00;3.00;1.00
65574;PMS5003;52216;54.942;73.394;2023-04-03T04:49:04;3.25;3.00;1.00
65574;PMS5003;52216;54.942;73.394;2023-04-03T04:52:07;4.00;4.00;0.00
65574;PMS5003;52216;54.942;73.394;2023-04-03T04:55:11;4.25;4.00;1.00
65574;PMS5003;52216;54.942;73.394;2023-04-03T04:58:14;6.00;6.00;1.00
65574;PMS5003;52216;54.942;73.394;2023-04-03T05:01:19;6.50;6.00;2.00
65574;PMS5003;52216;54.942;73.394;2023-04-03T05:04:40;6.00;5.00;2.00
65574;PMS5003;52216;54.942;73.394;2023-04-03T05:07:59;4.00;3.00;1.00
65574;PMS5003;52216;54.942;73.394;2023-04-03T05:11:02;4.00;4.00;0.00
65574;PMS5003;52216;54.942;73.394;2023-04-03T05:14:06;4.33;4.33;1.00
65574;PMS5003;52216;54.942;73.394;2023-04-03T05:17:10;4.00;4.00;1.00
65574;PMS5003;52216;54.942;73.394;2023-04-03T05:20:17;5.00;3.50;2.00
65574;PMS5003;52216;54.942;73.394;2023-04-03T05:23:21;4.00;3.00;1.00
65574;PMS5003;52216;54.942;73.394;2023-04-03T05:26:25;3.75;3.00;0.00
65574;PMS5003;52216;54.942;73.394;2023-04-03T05:29:29;3.00;2.00;0.00
65574;PMS5003;52216;54.942;73.394;2023-04-03T05:32:35;2.00;2.00;0.00
65574;PMS5003;52216;54.942;73.394;2023-04-03T05:36:07;3.25;1.25;0.00
65574;PMS5003;52216;54.942;73.394;2023-04-03T05:39:14;4.00;3.00;1.00
65574;PMS5003;52216;54.942;73.394;2023-04-03T05:42:20;3.00;3.00;0.00
65574;PMS5003;52216;54.942;73.394;2023-04-03T05:45:29;6.00;6.00;0.00
65574;PMS5003;52216;54.942;73.394;2023-04-03T05:48:34;6.00;4.00;1.00
65574;PMS5003;52216;54.942;73.394;2023-04-03T05:51:37;3.00;3.00;1.00
65574;PMS5003;52216;54.942;73.394;2023-04-03T05:54:53;3.00;3.00;0.00
65574;PMS5003;52216;54.942;73.394;2023-04-03T05:58:01;3.00;3.00;0.00
65574;PMS5003;52216;54.942;73.394;2023-04-03T06:01:15;3.00;3.00;0.00
65574;PMS5003;52216;54.942;73.394;2023-04-03T06:04:29;3.00;3.00;0.00
65574;PMS5003;52216;54.942;73.394;2023-04-03T06:07:32;3.00;3.00;0.00
65574;PMS5003;52216;54.942;73.394;2023-04-03T06:10:35;1.50;1.50;0.00
65574;PMS5003;52216;54.942;73.394;2023-04-03T06:13:49;1.00;1.00;0.00
65574;PMS5003;52216;54.942;73.394;2023-04-03T06:16:54;3.00;2.00;0.00
65574;PMS5003;52216;54.942;73.394;2023-04-03T06:19:57;3.00;2.00;0.00
65574;PMS5003;52216;54.942;73.394;2023-04-03T06:23:00;1.33;1.00;0.00
65574;PMS5003;52216;54.942;73.394;2023-04-03T06:26:03;2.00;2.00;0.00
65574;PMS5003;52216;54.942;73.394;2023-04-03T06:29:12;2.75;2.75;0.00
65574;PMS5003;52216;54.942;73.394;2023-04-03T06:32:22;3.00;3.00;0.00
65574;PMS5003;52216;54.942;73.394;2023-04-03T06:35:25;3.00;3.00;0.00
65574;PMS5003;52216;54.942;73.394;2023-04-03T06:38:28;3.00;3.00;0.00
65574;PMS5003;52216;54.942;73.394;2023-04-03T06:41:31;3.00;3.00;0.00
65574;PMS5003;52216;54.942;73.394;2023-04-03T06:44:35;2.75;2.25;0.00
65574;PMS5003;52216;54.942;73.394;2023-04-03T06:47:38;3.00;3.00;0.00
65574;PMS5003;52216;54.942;73.394;2023-04-03T06:50:42;3.00;3.00;0.00
65574;PMS5003;52216;54.942;73.394;2023-04-03T06:53:45;3.00;3.00;1.00
65574;PMS5003;52216;54.942;73.394;2023-04-03T06:56:49;3.25;3.00;1.25
65574;PMS5003;52216;54.942;73.394;2023-04-03T06:59:53;3.00;3.00;1.00
65574;PMS5003;52216;54.942;73.394;2023-04-03T07:03:00;3.00;3.00;1.00
65574;PMS5003;52216;54.942;73.394;2023-04-03T07:06:04;3.75;3.75;1.00
65574;PMS5003;52216;54.942;73.394;2023-04-03T07:09:09;3.00;3.00;1.00
65574;PMS5003;52216;54.942;73.394;2023-04-03T07:12:13;3.00;2.00;0.00
65574;PMS5003;52216;54.942;73.394;2023-04-03T07:15:16;3.00;3.00;0.00
65574;PMS5003;52216;54.942;73.394;2023-04-03T07:18:19;3.00;3.00;0.00
65574;PMS5003;52216;54.942;73.394;2023-04-03T07:21:23;3.00;3.00;0.00
65574;PMS5003;52216;54.942;73.394;2023-04-03T07:24:26;2.00;2.00;0.00
65574;PMS5003;52216;54.942;73.394;2023-04-03T07:27:28;3.00;3.00;0.00
65574;PMS5003;52216;54.942;73.394;2023-04-03T07:30:31;3.75;3.00;0.00
65574;PMS5003;52216;54.942;73.394;2023-04-03T07:33:34;3.33;3.00;0.00
65574;PMS5003;52216;54.942;73.394;2023-04-03T07:36:38;3.00;3.00;0.00
65574;PMS5003;52216;54.942;73.394;2023-04-03T07:39:46;3.00;3.00;0.00
65574;PMS5003;52216;54.942;73.394;2023-04-03T07:43:28;3.33;3.33;0.67
65574;PMS5003;52216;54.942;73.394;2023-04-03T07:46:32;3.00;3.00;1.00
65574;PMS5003;52216;54.942;73.394;2023-04-03T07:49:35;2.00;2.00;0.00
65574;PMS5003;52216;54.942;73.394;2023-04-03T07:52:42;3.00;2.00;0.00
65574;PMS5003;52216;54.942;73.394;2023-04-03T07:55:48;4.00;2.25;0.00
65574;PMS5003;52216;54.942;73.394;2023-04-03T07:58:59;3.75;3.00;0.00
65574;PMS5003;52216;54.942;73.394;2023-04-03T08:02:09;3.00;3.00;0.00
65574;PMS5003;52216;54.942;73.394;2023-04-03T08:05:12;3.00;3.00;0.00
65574;PMS5003;52216;54.942;73.394;2023-04-03T08:08:17;2.00;2.00;0.00
65574;PMS5003;52216;54.942;73.394;2023-04-03T08:11:21;5.00;3.00;0.00
65574;PMS5003;52216;54.942;73.394;2023-04-03T08:14:25;3.00;3.00;0.00
65574;PMS5003;52216;54.942;73.394;2023-04-03T08:17:28;5.75;4.00;0.00
65574;PMS5003;52216;54.942;73.394;2023-04-03T08:20:31;3.00;3.00;0.00
65574;PMS5003;52216;54.942;73.394;2023-04-03T08:23:34;3.00;3.00;0.00
65574;PMS5003;52216;54.942;73.394;2023-04-03T08:26:37;3.00;3.00;0.00
65574;PMS5003;52216;54.942;73.394;2023-04-03T08:29:40;3.00;3.00;0.00
65574;PMS5003;52216;54.942;73.394;2023-04-03T08:32:43;3.00;2.00;0.00
65574;PMS5003;52216;54.942;73.394;2023-04-03T08:35:52;3.00;3.00;0.00
65574;PMS5003;52216;54.942;73.394;2023-04-03T08:38:54;3.67;3.00;0.00
65574;PMS5003;52216;54.942;73.394;2023-04-03T08:42:14;3.75;2.50;0.00
65574;PMS5003;52216;54.942;73.394;2023-04-03T08:46:05;2.33;1.33;0.00
65574;PMS5003;52216;54.942;73.394;2023-04-03T08:48:42;10.50;10.50;6.50
65574;PMS5003;52216;54.942;73.394;2023-04-03T08:51:46;6.00;6.00;2.50
65574;PMS5003;52216;54.942;73.394;2023-04-03T08:54:58;4.00;3.25;0.00
65574;PMS5003;52216;54.942;73.394;2023-04-03T08:58:09;3.00;3.00;0.00
65574;PMS5003;52216;54.942;73.394;2023-04-03T09:04:18;3.00;3.00;0.00
65574;PMS5003;52216;54.942;73.394;2023-04-03T09:07:24;3.00;3.00;0.00
65574;PMS5003;52216;54.942;73.394;2023-04-03T09:10:33;4.00;4.00;0.00
65574;PMS5003;52216;54.942;73.394;2023-04-03T09:16:59;2.00;2.00;0.00
65574;PMS5003;52216;54.942;73.394;2023-04-03T09:20:46;2.00;2.00;0.00
65574;PMS5003;52216;54.942;73.394;2023-04-03T09:23:49;2.00;2.00;0.00
65574;PMS5003;52216;54.942;73.394;2023-04-03T09:26:56;4.00;3.50;0.00
65574;PMS5003;52216;54.942;73.394;2023-04-03T09:30:08;4.00;4.00;0.00
65574;PMS5003;52216;54.942;73.394;2023-04-03T09:33:15;4.00;4.00;0.00
65574;PMS5003;52216;54.942;73.394;2023-04-03T09:36:41;4.00;4.00;0.00
65574;PMS5003;52216;54.942;73.394;2023-04-03T09:39:55;1.00;1.00;0.00
65574;PMS5003;52216;54.942;73.394;2023-04-03T09:42:59;3.75;3.00;0.00
65574;PMS5003;52216;54.942;73.394;2023-04-03T09:46:16;2.00;2.00;0.00
65574;PMS5003;52216;54.942;73.394;2023-04-03T09:49:20;4.00;3.75;0.00
65574;PMS5003;52216;54.942;73.394;2023-04-03T09:52:24;4.00;4.00;0.00
65574;PMS5003;52216;54.942;73.394;2023-04-03T09:55:41;3.25;3.00;0.00
65574;PMS5003;52216;54.942;73.394;2023-04-03T09:58:46;3.00;3.00;0.00
65574;PMS5003;52216;54.942;73.394;2023-04-03T10:01:58;3.00;2.00;0.00
65574;PMS5003;52216;54.942;73.394;2023-04-03T10:05:00;4.00;3.00;0.00
65574;PMS5003;52216;54.942;73.394;2023-04-03T10:08:25;4.00;4.00;0.00
65574;PMS5003;52216;54.942;73.394;2023-04-03T10:11:26;4.00;3.00;0.00
65574;PMS5003;52216;54.942;73.394;2023-04-03T10:14:29;2.00;2.00;0.00
65574;PMS5003;52216;54.942;73.394;2023-04-03T10:20:39;4.00;3.00;0.00
65574;PMS5003;52216;54.942;73.394;2023-04-03T10:23:49;4.00;4.00;0.00
65574;PMS5003;52216;54.942;73.394;2023-04-03T10:30:00;4.00;3.00;0.00
65574;PMS5003;52216;54.942;73.394;2023-04-03T10:33:09;3.00;2.00;0.00
65574;PMS5003;52216;54.942;73.394;2023-04-03T10:39:23;4.00;3.75;0.00
65574;PMS5003;52216;54.942;73.394;2023-04-03T10:48:53;3.00;3.00;2.00
65574;PMS5003;52216;54.942;73.394;2023-04-03T10:52:13;3.50;3.00;1.00
65574;PMS5003;52216;54.942;73.394;2023-04-03T10:55:42;3.00;3.00;1.00
65574;PMS5003;52216;54.942;73.394;2023-04-03T10:58:50;2.50;2.00;0.00
65574;PMS5003;52216;54.942;73.394;2023-04-03T11:02:05;2.00;2.00;0.00
65574;PMS5003;52216;54.942;73.394;2023-04-03T11:05:47;2.00;2.00;0.00
65574;PMS5003;52216;54.942;73.394;2023-04-03T11:08:57;2.75;2.75;0.00
65574;PMS5003;52216;54.942;73.394;2023-04-03T11:12:06;2.00;1.00;0.00
65574;PMS5003;52216;54.942;73.394;2023-04-03T11:15:33;2.00;1.00;0.00
65574;PMS5003;52216;54.942;73.394;2023-04-03T11:18:40;3.00;3.00;0.00
65574;PMS5003;52216;54.942;73.394;2023-04-03T11:21:51;1.50;1.50;0.00
65574;PMS5003;52216;54.942;73.394;2023-04-03T11:25:05;4.00;3.75;0.00
65574;PMS5003;52216;54.942;73.394;2023-04-03T11:28:11;2.00;2.00;0.00
65574;PMS5003;52216;54.942;73.394;2023-04-03T11:34:49;3.00;2.00;0.00
65574;PMS5003;52216;54.942;73.394;2023-04-03T11:37:53;2.00;1.00;0.00
65574;PMS5003;52216;54.942;73.394;2023-04-03T11:40:57;0.00;0.00;0.00
65574;PMS5003;52216;54.942;73.394;2023-04-03T11:44:05;1.75;0.00;0.00
65574;PMS5003;52216;54.942;73.394;2023-04-03T11:47:43;1.00;0.00;0.00
65574;PMS5003;52216;54.942;73.394;2023-04-03T11:53:54;4.00;3.00;0.00
65574;PMS5003;52216;54.942;73.394;2023-04-03T12:03:57;3.00;3.00;0.00
65574;PMS5003;52216;54.942;73.394;2023-04-03T12:07:13;2.00;2.00;0.00
65574;PMS5003;52216;54.942;73.394;2023-04-03T12:10:29;4.00;3.00;0.00
65574;PMS5003;52216;54.942;73.394;2023-04-03T12:13:32;4.50;4.00;1.00
65574;PMS5003;52216;54.942;73.394;2023-04-03T12:16:46;7.75;6.00;3.00
65574;PMS5003;52216;54.942;73.394;2023-04-03T12:19:49;6.00;4.50;1.25
65574;PMS5003;52216;54.942;73.394;2023-04-03T12:32:40;3.75;3.75;0.00
65574;PMS5003;52216;54.942;73.394;2023-04-03T12:39:21;6.00;6.00;1.00
65574;PMS5003;52216;54.942;73.394;2023-04-03T12:49:12;4.00;4.00;2.00
65574;PMS5003;52216;54.942;73.394;2023-04-03T12:52:35;6.00;5.75;1.00
65574;PMS5003;52216;54.942;73.394;2023-04-03T12:55:56;7.00;7.00;1.00
65574;PMS5003;52216;54.942;73.394;2023-04-03T13:02:28;4.00;3.00;2.00
65574;PMS5003;52216;54.942;73.394;2023-04-03T13:05:31;5.00;4.00;2.00
65574;PMS5003;52216;54.942;73.394;2023-04-03T13:08:35;5.00;5.00;1.00
65574;PMS5003;52216;54.942;73.394;2023-04-03T13:11:39;4.00;4.00;1.00
65574;PMS5003;52216;54.942;73.394;2023-04-03T13:14:51;5.00;3.00;1.00
65574;PMS5003;52216;54.942;73.394;2023-04-03T13:17:56;7.00;6.00;3.00
65574;PMS5003;52216;54.942;73.394;2023-04-03T13:21:13;4.25;4.00;3.00
65574;PMS5003;52216;54.942;73.394;2023-04-03T13:24:26;5.00;4.25;2.00
65574;PMS5003;52216;54.942;73.394;2023-04-03T13:27:30;6.50;6.00;2.00
65574;PMS5003;52216;54.942;73.394;2023-04-03T13:30:35;7.00;6.75;2.75
65574;PMS5003;52216;54.942;73.394;2023-04-03T13:37:03;7.00;5.25;3.00
65574;PMS5003;52216;54.942;73.394;2023-04-03T13:43:17;7.00;6.00;3.00
65574;PMS5003;52216;54.942;73.394;2023-04-03T13:46:26;4.00;4.00;3.00
65574;PMS5003;52216;54.942;73.394;2023-04-03T13:49:37;4.00;3.75;2.00
65574;PMS5003;52216;54.942;73.394;2023-04-03T13:52:52;3.25;3.25;1.00
65574;PMS5003;52216;54.942;73.394;2023-04-03T13:55:57;3.00;3.00;1.00
65574;PMS5003;52216;54.942;73.394;2023-04-03T14:02:21;3.00;3.00;0.00
65574;PMS5003;52216;54.942;73.394;2023-04-03T14:05:25;3.00;3.00;0.00
65574;PMS5003;52216;54.942;73.394;2023-04-03T14:08:39;3.00;3.00;0.00
65574;PMS5003;52216;54.942;73.394;2023-04-03T14:12:14;4.00;3.00;0.00
65574;PMS5003;52216;54.942;73.394;2023-04-03T14:15:26;3.00;3.00;0.00
65574;PMS5003;52216;54.942;73.394;2023-04-03T14:18:30;4.75;4.75;0.00
65574;PMS5003;52216;54.942;73.394;2023-04-03T14:25:18;3.00;3.00;2.00
65574;PMS5003;52216;54.942;73.394;2023-04-03T14:28:22;3.00;3.00;1.00
65574;PMS5003;52216;54.942;73.394;2023-04-03T14:32:05;4.33;3.67;1.67
65574;PMS5003;52216;54.942;73.394;2023-04-03T14:35:09;4.25;3.25;1.00
65574;PMS5003;52216;54.942;73.394;2023-04-03T14:38:31;3.00;3.00;1.00
65574;PMS5003;52216;54.942;73.394;2023-04-03T14:41:34;2.00;2.00;0.00
65574;PMS5003;52216;54.942;73.394;2023-04-03T14:44:37;5.00;4.00;0.00
65574;PMS5003;52216;54.942;73.394;2023-04-03T14:47:46;4.00;4.00;1.00
65574;PMS5003;52216;54.942;73.394;2023-04-03T14:50:55;4.00;3.00;1.75
65574;PMS5003;52216;54.942;73.394;2023-04-03T14:53:58;3.00;3.00;1.25
65574;PMS5003;52216;54.942;73.394;2023-04-03T14:57:00;6.00;5.00;2.75
65574;PMS5003;52216;54.942;73.394;2023-04-03T15:00:04;4.00;4.00;2.00
65574;PMS5003;52216;54.942;73.394;2023-04-03T15:03:18;4.00;4.00;2.00
65574;PMS5003;52216;54.942;73.394;2023-04-03T15:06:22;4.00;3.00;2.00
65574;PMS5003;52216;54.942;73.394;2023-04-03T15:09:26;6.00;6.00;3.00
65574;PMS5003;52216;54.942;73.394;2023-04-03T15:12:29;6.00;6.00;3.00
65574;PMS5003;52216;54.942;73.394;2023-04-03T15:15:32;9.00;7.75;4.75
65574;PMS5003;52216;54.942;73.394;2023-04-03T15:18:37;9.00;7.00;3.00
65574;PMS5003;52216;54.942;73.394;2023-04-03T15:21:39;14.50;12.50;6.00
65574;PMS5003;52216;54.942;73.394;2023-04-03T15:24:43;15.33;15.00;6.33
65574;PMS5003;52216;54.942;73.394;2023-04-03T15:27:47;18.50;16.50;6.75
65574;PMS5003;52216;54.942;73.394;2023-04-03T15:30:50;16.00;15.00;6.75
65574;PMS5003;52216;54.942;73.394;2023-04-03T15:34:03;13.00;12.75;4.00
65574;PMS5003;52216;54.942;73.394;2023-04-03T15:37:07;12.00;8.33;4.00
65574;PMS5003;52216;54.942;73.394;2023-04-03T15:40:09;10.00;8.00;3.00
65574;PMS5003;52216;54.942;73.394;2023-04-03T15:43:13;11.75;9.75;4.75
65574;PMS5003;52216;54.942;73.394;2023-04-03T15:46:17;13.00;11.00;4.00
65574;PMS5003;52216;54.942;73.394;2023-04-03T15:49:19;12.00;9.67;3.00
65574;PMS5003;52216;54.942;73.394;2023-04-03T15:52:22;11.67;9.00;3.00
65574;PMS5003;52216;54.942;73.394;2023-04-03T15:55:26;7.00;6.00;2.25
65574;PMS5003;52216;54.942;73.394;2023-04-03T15:58:29;4.00;4.00;3.00
65574;PMS5003;52216;54.942;73.394;2023-04-03T16:01:32;4.50;4.50;2.25
65574;PMS5003;52216;54.942;73.394;2023-04-03T16:04:36;5.00;5.00;3.00
65574;PMS5003;52216;54.942;73.394;2023-04-03T16:07:39;4.00;4.00;3.00
65574;PMS5003;52216;54.942;73.394;2023-04-03T16:10:43;5.00;5.00;3.00
65574;PMS5003;52216;54.942;73.394;2023-04-03T16:13:58;6.00;5.00;3.00
65574;PMS5003;52216;54.942;73.394;2023-04-03T16:17:07;6.00;5.25;3.00
65574;PMS5003;52216;54.942;73.394;2023-04-03T16:20:20;7.25;6.00;3.00
65574;PMS5003;52216;54.942;73.394;2023-04-03T16:23:24;6.25;6.00;2.50
65574;PMS5003;52216;54.942;73.394;2023-04-03T16:26:27;5.50;5.25;3.00
65574;PMS5003;52216;54.942;73.394;2023-04-03T16:29:30;4.75;4.00;2.25
65574;PMS5003;52216;54.942;73.394;2023-04-03T16:32:43;3.75;3.00;2.00
65574;PMS5003;52216;54.942;73.394;2023-04-03T16:35:46;5.75;5.50;2.25
65574;PMS5003;52216;54.942;73.394;2023-04-03T16:38:55;4.33;4.00;3.00
65574;PMS5003;52216;54.942;73.394;2023-04-03T16:42:07;4.00;4.00;2.00
65574;PMS5003;52216;54.942;73.394;2023-04-03T16:45:11;3.00;3.00;2.00
65574;PMS5003;52216;54.942;73.394;2023-04-03T16:48:14;2.67;2.67;0.00
65574;PMS5003;52216;54.942;73.394;2023-04-03T16:51:17;3.00;3.00;0.00
65574;PMS5003;52216;54.942;73.394;2023-04-03T16:54:21;3.00;2.00;0.00
65574;PMS5003;52216;54.942;73.394;2023-04-03T16:57:24;2.50;2.50;0.00
65574;PMS5003;52216;54.942;73.394;2023-04-03T17:00:29;3.00;3.00;0.00
65574;PMS5003;52216;54.942;73.394;2023-04-03T17:03:32;3.00;2.00;0.00
65574;PMS5003;52216;54.942;73.394;2023-04-03T17:06:39;3.00;3.00;0.00
65574;PMS5003;52216;54.942;73.394;2023-04-03T17:09:52;3.00;3.00;0.00
65574;PMS5003;52216;54.942;73.394;2023-04-03T17:13:30;3.50;3.50;0.00
65574;PMS5003;52216;54.942;73.394;2023-04-03T17:16:35;5.00;4.75;1.00
65574;PMS5003;52216;54.942;73.394;2023-04-03T17:19:41;3.50;3.00;2.00
65574;PMS5003;52216;54.942;73.394;2023-04-03T17:22:45;3.00;2.75;1.00
65574;PMS5003;52216;54.942;73.394;2023-04-03T17:25:49;2.00;1.00;0.00
65574;PMS5003;52216;54.942;73.394;2023-04-03T17:28:50;3.00;2.00;0.00
65574;PMS5003;52216;54.942;73.394;2023-04-03T17:31:55;3.50;3.00;0.50
65574;PMS5003;52216;54.942;73.394;2023-04-03T17:34:57;4.00;3.00;1.00
65574;PMS5003;52216;54.942;73.394;2023-04-03T17:38:00;3.00;3.00;1.00
65574;PMS5003;52216;54.942;73.394;2023-04-03T17:41:05;3.25;3.25;0.00
65574;PMS5003;52216;54.942;73.394;2023-04-03T17:44:08;4.00;3.00;1.50
65574;PMS5003;52216;54.942;73.394;2023-04-03T17:47:11;3.00;3.00;1.00
65574;PMS5003;52216;54.942;73.394;2023-04-03T17:50:15;4.00;4.00;1.00
65574;PMS5003;52216;54.942;73.394;2023-04-03T17:53:18;6.00;5.50;3.00
65574;PMS5003;52216;54.942;73.394;2023-04-03T17:56:22;6.00;5.75;3.00
65574;PMS5003;52216;54.942;73.394;2023-04-03T17:59:26;6.50;6.50;3.25
65574;PMS5003;52216;54.942;73.394;2023-04-03T18:02:39;6.00;6.00;3.00
65574;PMS5003;52216;54.942;73.394;2023-04-03T18:05:44;4.00;4.00;3.00
65574;PMS5003;52216;54.942;73.394;2023-04-03T18:08:48;3.00;3.00;1.00
65574;PMS5003;52216;54.942;73.394;2023-04-03T18:11:51;5.00;3.00;1.00
65574;PMS5003;52216;54.942;73.394;2023-04-03T18:14:55;3.00;3.00;0.00
65574;PMS5003;52216;54.942;73.394;2023-04-03T18:17:59;2.00;2.00;0.00
65574;PMS5003;52216;54.942;73.394;2023-04-03T18:21:08;2.00;2.00;0.00
65574;PMS5003;52216;54.942;73.394;2023-04-03T18:24:22;1.00;1.00;0.00
65574;PMS5003;52216;54.942;73.394;2023-04-03T18:27:26;1.00;1.00;0.00
65574;PMS5003;52216;54.942;73.394;2023-04-03T18:30:40;2.00;2.00;0.00
65574;PMS5003;52216;54.942;73.394;2023-04-03T18:33:43;2.00;2.00;0.00
65574;PMS5003;52216;54.942;73.394;2023-04-03T18:36:47;1.75;1.75;0.00
65574;PMS5003;52216;54.942;73.394;2023-04-03T18:39:51;1.00;0.00;0.00
65574;PMS5003;52216;54.942;73.394;2023-04-03T18:42:54;0.00;0.00;0.00
65574;PMS5003;52216;54.942;73.394;2023-04-03T18:45:57;1.00;0.00;0.00
65574;PMS5003;52216;54.942;73.394;2023-04-03T18:49:00;0.00;0.00;0.00
65574;PMS5003;52216;54.942;73.394;2023-04-03T18:52:03;2.00;2.00;0.00
65574;PMS5003;52216;54.942;73.394;2023-04-03T18:55:07;2.00;2.00;0.00
65574;PMS5003;52216;54.942;73.394;2023-04-03T18:58:17;0.00;0.00;0.00
65574;PMS5003;52216;54.942;73.394;2023-04-03T19:01:26;0.00;0.00;0.00
65574;PMS5003;52216;54.942;73.394;2023-04-03T19:04:29;0.00;0.00;0.00
65574;PMS5003;52216;54.942;73.394;2023-04-03T19:07:32;0.00;0.00;0.00
65574;PMS5003;52216;54.942;73.394;2023-04-03T19:10:35;0.00;0.00;0.00
65574;PMS5003;52216;54.942;73.394;2023-04-03T19:13:43;0.00;0.00;0.00
65574;PMS5003;52216;54.942;73.394;2023-04-03T19:16:49;0.00;0.00;0.00
65574;PMS5003;52216;54.942;73.394;2023-04-03T19:19:52;0.00;0.00;0.00